Time;durP1;ratioP1;P1;durP2;ratioP2;P2;SDS_P1;SDS_P2;PMS_P1;PMS_P2;Temp;Humidity;BMP_temperature;BMP_pressure;BME280_temperature;BME280_humidity;BME280_pressure;Samples;Min_cycle;Max_cycle;Signal;HPM_P1;HPM_P2
2021/12/26 00:01:45;;;;;;;104.32;59.38;;;-6.20;99.90;;;;;;5043382;28;20543;-45
2021/12/26 00:04:14;;;;;;;111.55;59.35;;;-6.20;99.90;;;;;;5043301;28;20242;-44
2021/12/26 00:06:43;;;;;;;99.03;61.42;;;-6.20;99.90;;;;;;5041255;28;20234;-46
2021/12/26 00:09:11;;;;;;;113.32;65.70;;;-6.20;99.90;;;;;;5041529;28;20204;-45
2021/12/26 00:11:38;;;;;;;103.75;63.65;;;-6.20;99.90;;;;;;5040397;28;20477;-45
2021/12/26 00:14:06;;;;;;;108.75;65.10;;;-6.20;99.90;;;;;;5041405;28;20200;-44
2021/12/26 00:16:34;;;;;;;106.00;66.72;;;-6.40;99.90;;;;;;5041175;28;20242;-45
2021/12/26 00:19:01;;;;;;;103.22;64.03;;;-6.30;99.90;;;;;;5041257;28;20216;-44
2021/12/26 00:21:28;;;;;;;100.72;65.85;;;-6.40;99.90;;;;;;5041403;28;20196;-43
2021/12/26 00:23:58;;;;;;;104.70;59.92;;;-6.40;99.90;;;;;;5041246;28;20203;-44
2021/12/26 00:26:31;;;;;;;121.63;61.70;;;-6.60;99.90;;;;;;5041864;28;20386;-43
2021/12/26 00:28:59;;;;;;;103.05;60.42;;;-6.70;99.90;;;;;;5042719;28;20220;-43
2021/12/26 00:31:27;;;;;;;106.85;64.72;;;-6.60;99.90;;;;;;5041196;28;20608;-45
2021/12/26 00:33:54;;;;;;;93.13;58.17;;;-6.60;99.90;;;;;;5041096;28;20391;-45
2021/12/26 00:36:22;;;;;;;100.57;63.05;;;-6.70;99.90;;;;;;5041027;28;20196;-46
2021/12/26 00:38:49;;;;;;;111.80;62.28;;;-6.80;99.90;;;;;;5040587;28;20220;-44
2021/12/26 00:41:17;;;;;;;97.78;57.55;;;-6.70;99.90;;;;;;5041439;28;20200;-45
2021/12/26 00:43:45;;;;;;;95.03;59.50;;;-6.80;99.90;;;;;;5042090;28;20251;-46
2021/12/26 00:46:14;;;;;;;108.28;61.92;;;-6.80;99.90;;;;;;5042428;28;20227;-44
2021/12/26 00:48:42;;;;;;;101.63;60.80;;;-6.70;99.90;;;;;;5041447;28;20469;-45
2021/12/26 00:51:09;;;;;;;106.07;59.95;;;-6.70;99.90;;;;;;5041403;28;20204;-46
2021/12/26 00:53:37;;;;;;;100.72;58.17;;;-6.80;99.90;;;;;;5040553;28;20196;-48
2021/12/26 00:56:04;;;;;;;98.68;59.70;;;-6.80;99.90;;;;;;5040000;28;20207;-45
2021/12/26 00:58:32;;;;;;;114.85;63.88;;;-6.80;99.90;;;;;;5040852;28;20228;-44
2021/12/26 01:00:59;;;;;;;115.05;61.00;;;-6.90;99.90;;;;;;5039797;28;20446;-44
2021/12/26 01:03:27;;;;;;;129.93;69.50;;;-7.00;99.90;;;;;;5040725;28;20200;-45
2021/12/26 01:05:56;;;;;;;122.13;70.40;;;-7.20;99.90;;;;;;5040253;28;20224;-45
2021/12/26 01:08:29;;;;;;;143.18;76.13;;;-7.20;99.90;;;;;;5041613;28;20228;-44
2021/12/26 01:11:14;;;;;;;129.52;72.78;;;-7.10;99.90;;;;;;5041108;28;20196;-46
2021/12/26 01:13:44;;;;;;;132.40;74.13;;;-7.10;99.90;;;;;;5040545;28;20200;-43
2021/12/26 01:16:13;;;;;;;124.00;74.18;;;-7.00;99.90;;;;;;5040117;28;20561;-50
2021/12/26 01:18:45;;;;;;;138.55;75.97;;;-7.00;99.90;;;;;;5040918;28;20220;-47
2021/12/26 01:21:24;;;;;;;134.63;77.20;;;-7.20;99.90;;;;;;5040311;28;20402;-45
2021/12/26 01:23:56;;;;;;;133.15;81.88;;;-7.20;99.90;;;;;;5040687;28;20203;-44
2021/12/26 01:26:24;;;;;;;127.82;72.82;;;-7.10;99.90;;;;;;5040200;28;20224;-45
2021/12/26 01:28:52;;;;;;;141.02;77.68;;;-7.10;99.90;;;;;;5040440;28;20216;-46
2021/12/26 01:31:20;;;;;;;129.00;75.57;;;-6.90;99.90;;;;;;5040844;28;20200;-47
2021/12/26 01:34:00;;;;;;;129.05;73.53;;;-6.90;99.90;;;;;;5042440;28;20197;-45
2021/12/26 01:36:29;;;;;;;130.35;74.70;;;-7.10;99.90;;;;;;5046260;28;20498;-47
2021/12/26 01:38:59;;;;;;;136.55;76.38;;;-7.10;99.90;;;;;;5041638;28;20538;-45
2021/12/26 01:41:26;;;;;;;133.90;70.65;;;-7.10;99.90;;;;;;5040614;28;20200;-44
2021/12/26 01:43:57;;;;;;;123.35;69.30;;;-7.10;99.90;;;;;;5040520;28;20200;-44
2021/12/26 01:46:27;;;;;;;134.00;76.95;;;-7.00;99.90;;;;;;5041261;28;20239;-44
2021/12/26 01:49:19;;;;;;;132.10;73.60;;;-7.20;99.90;;;;;;5040865;28;20223;-46
2021/12/26 01:51:48;;;;;;;122.50;66.60;;;-7.20;99.90;;;;;;5032354;28;20350;-46
2021/12/26 01:54:28;;;;;;;125.50;70.38;;;-7.10;99.90;;;;;;5040667;28;20219;-44
2021/12/26 01:56:59;;;;;;;136.95;76.40;;;-7.10;99.90;;;;;;5040282;28;20503;-45
2021/12/26 01:59:26;;;;;;;139.10;73.85;;;-7.10;99.90;;;;;;5040284;28;20250;-44
2021/12/26 02:01:56;;;;;;;128.32;73.32;;;-7.10;99.90;;;;;;5040402;28;20203;-47
2021/12/26 02:04:28;;;;;;;150.40;79.43;;;-7.10;99.90;;;;;;5040313;28;20208;-44
2021/12/26 02:07:00;;;;;;;128.75;70.25;;;-7.00;99.90;;;;;;5040001;28;20196;-46
2021/12/26 02:09:27;;;;;;;144.00;73.72;;;-7.10;99.90;;;;;;5040142;28;20205;-45
2021/12/26 02:11:55;;;;;;;137.50;74.07;;;-7.00;99.90;;;;;;5041289;28;20258;-47
2021/12/26 02:14:22;;;;;;;148.60;79.13;;;-7.10;99.90;;;;;;5043437;28;20211;-46
2021/12/26 02:16:50;;;;;;;136.05;77.20;;;-7.10;99.90;;;;;;5043489;28;20499;-47
2021/12/26 02:19:17;;;;;;;141.05;74.55;;;-7.00;99.90;;;;;;5043652;28;20196;-45
2021/12/26 02:22:10;;;;;;;146.35;75.47;;;-7.10;99.90;;;;;;5044217;28;20200;-45
2021/12/26 02:27:36;;;;;;;141.77;72.30;;;-7.20;99.90;;;;;;5045519;28;20219;-44
2021/12/26 02:30:09;;;;;;;159.80;72.95;;;-7.10;99.90;;;;;;5045163;28;20200;-44
2021/12/26 02:32:38;;;;;;;121.72;67.65;;;-7.20;99.90;;;;;;5045365;28;20200;-45
2021/12/26 02:35:06;;;;;;;136.60;73.53;;;-7.30;99.90;;;;;;5045221;28;20201;-44
2021/12/26 02:37:34;;;;;;;141.02;74.68;;;-7.30;99.90;;;;;;5045719;28;20220;-45
2021/12/26 02:40:01;;;;;;;119.47;68.63;;;-7.30;99.90;;;;;;5043045;28;20204;-43
2021/12/26 02:42:28;;;;;;;149.82;76.47;;;-7.30;99.90;;;;;;5043055;28;20215;-46
2021/12/26 02:44:55;;;;;;;140.75;70.60;;;-7.20;99.90;;;;;;5043470;28;20220;-43
2021/12/26 02:47:37;;;;;;;128.75;71.82;;;-7.30;99.90;;;;;;5044496;28;20539;-44
2021/12/26 02:50:08;;;;;;;122.05;65.50;;;-7.10;99.90;;;;;;5044042;28;20196;-44
2021/12/26 02:52:35;;;;;;;130.95;63.22;;;-7.10;99.90;;;;;;5043812;28;20208;-44
2021/12/26 02:55:04;;;;;;;115.45;72.55;;;-7.20;99.90;;;;;;5042954;28;20200;-45
2021/12/26 02:57:31;;;;;;;120.88;64.20;;;-7.20;99.90;;;;;;5042361;28;20558;-43
2021/12/26 03:00:10;;;;;;;138.23;66.35;;;-7.30;99.90;;;;;;5043018;28;20200;-45
2021/12/26 03:02:43;;;;;;;135.35;69.90;;;-7.40;99.90;;;;;;5043861;28;20208;-45
2021/12/26 03:05:11;;;;;;;121.85;67.40;;;-7.60;99.90;;;;;;5043927;28;20216;-45
2021/12/26 03:07:38;;;;;;;124.88;64.68;;;-7.70;99.90;;;;;;5044118;28;20224;-44
2021/12/26 03:10:10;;;;;;;126.03;62.95;;;-7.90;99.90;;;;;;5044831;28;20270;-44
2021/12/26 03:12:42;;;;;;;122.15;65.45;;;-7.70;99.90;;;;;;5046407;28;20262;-47
2021/12/26 03:15:10;;;;;;;122.82;63.35;;;-7.40;99.90;;;;;;5050396;28;20429;-44
2021/12/26 03:17:38;;;;;;;135.05;63.20;;;-7.50;99.90;;;;;;5044365;28;20258;-46
2021/12/26 03:20:13;;;;;;;112.65;61.17;;;-7.40;99.90;;;;;;5042430;28;20220;-45
2021/12/26 03:22:40;;;;;;;127.68;63.25;;;-7.40;99.90;;;;;;5041710;28;20199;-45
2021/12/26 03:25:14;;;;;;;117.18;63.10;;;-7.50;99.90;;;;;;5042291;28;20286;-44
2021/12/26 03:27:41;;;;;;;121.93;64.88;;;-7.60;99.90;;;;;;5040733;28;20224;-44
2021/12/26 03:30:12;;;;;;;133.57;66.85;;;-7.60;99.90;;;;;;5042237;28;20219;-45
2021/12/26 03:32:39;;;;;;;116.07;63.80;;;-7.60;99.90;;;;;;5041544;28;20196;-43
2021/12/26 03:35:08;;;;;;;113.95;62.20;;;-7.70;99.90;;;;;;5042294;28;20215;-45
2021/12/26 03:37:36;;;;;;;128.27;67.53;;;-7.60;99.90;;;;;;5041582;28;20224;-45
2021/12/26 03:40:05;;;;;;;128.68;68.00;;;-7.60;99.90;;;;;;5042297;28;20200;-44
2021/12/26 03:42:33;;;;;;;127.85;66.70;;;-7.70;99.90;;;;;;5041475;28;20205;-45
2021/12/26 03:45:05;;;;;;;114.07;61.92;;;-7.80;99.90;;;;;;5040455;28;20422;-45
2021/12/26 03:47:32;;;;;;;110.50;59.38;;;-7.80;99.90;;;;;;5041265;28;20228;-45
2021/12/26 03:50:01;;;;;;;117.15;59.83;;;-7.60;99.90;;;;;;5041688;28;20430;-45
2021/12/26 03:52:28;;;;;;;125.97;59.20;;;-7.50;99.90;;;;;;5041871;28;20204;-46
2021/12/26 03:54:55;;;;;;;117.53;64.70;;;-7.60;99.90;;;;;;5041286;28;20196;-45
2021/12/26 03:57:22;;;;;;;122.00;63.90;;;-7.50;99.90;;;;;;5041283;28;20223;-45
2021/12/26 03:59:50;;;;;;;123.10;60.90;;;-7.60;99.90;;;;;;5041134;28;20196;-45
2021/12/26 04:02:17;;;;;;;124.88;61.45;;;-7.50;99.90;;;;;;5041717;28;20208;-45
2021/12/26 04:04:45;;;;;;;115.35;56.33;;;-7.60;99.90;;;;;;5041392;28;20266;-44
2021/12/26 04:07:12;;;;;;;121.20;63.72;;;-7.60;99.90;;;;;;5041022;28;20228;-44
2021/12/26 04:09:40;;;;;;;121.20;64.55;;;-7.50;99.90;;;;;;5041211;28;20378;-44
2021/12/26 04:12:08;;;;;;;131.07;67.00;;;-7.60;99.90;;;;;;5041425;28;20196;-46
2021/12/26 04:14:35;;;;;;;113.65;65.88;;;-7.60;99.90;;;;;;5041324;28;20218;-44
2021/12/26 04:17:03;;;;;;;139.75;69.05;;;-7.60;99.90;;;;;;5041414;28;20200;-44
2021/12/26 04:19:30;;;;;;;128.43;67.65;;;-7.70;99.90;;;;;;5041066;28;20516;-44
2021/12/26 04:21:57;;;;;;;125.68;65.78;;;-7.80;99.90;;;;;;5041030;28;20212;-43
2021/12/26 04:24:25;;;;;;;125.53;70.22;;;-7.70;99.90;;;;;;5040829;28;20565;-45
2021/12/26 04:26:52;;;;;;;126.00;66.40;;;-7.80;99.90;;;;;;5039665;28;20658;-46
2021/12/26 04:29:19;;;;;;;120.63;63.45;;;-8.00;99.90;;;;;;5043083;28;20213;-46
2021/12/26 04:31:46;;;;;;;134.02;65.95;;;-7.90;99.90;;;;;;5047189;28;20210;-44
2021/12/26 04:34:14;;;;;;;129.05;67.43;;;-7.90;99.90;;;;;;5043274;28;20426;-43
2021/12/26 04:36:42;;;;;;;123.82;63.65;;;-7.80;99.90;;;;;;5041919;28;20200;-43
2021/12/26 04:39:10;;;;;;;130.10;68.68;;;-7.80;99.90;;;;;;5042501;28;20283;-46
2021/12/26 04:41:37;;;;;;;121.25;60.83;;;-7.90;99.90;;;;;;5043033;28;20243;-43
2021/12/26 04:44:04;;;;;;;134.02;67.45;;;-7.80;99.90;;;;;;5042631;28;20200;-44
2021/12/26 04:46:32;;;;;;;127.07;65.55;;;-7.90;99.90;;;;;;5042312;28;20220;-46
2021/12/26 04:48:59;;;;;;;105.78;58.00;;;-7.80;99.90;;;;;;5041092;28;20216;-45
2021/12/26 04:51:27;;;;;;;107.72;60.78;;;-8.00;99.90;;;;;;5040239;28;20235;-44
2021/12/26 04:53:54;;;;;;;126.10;62.78;;;-7.90;99.90;;;;;;5040957;28;20200;-44
2021/12/26 04:56:22;;;;;;;115.95;59.35;;;-7.90;99.90;;;;;;5040361;28;20229;-43
2021/12/26 04:58:49;;;;;;;122.35;62.88;;;-7.90;99.90;;;;;;5040824;28;20501;-44
2021/12/26 05:01:16;;;;;;;124.78;61.00;;;-7.90;99.90;;;;;;5040598;28;20207;-46
2021/12/26 05:03:44;;;;;;;113.45;58.67;;;-7.90;99.90;;;;;;5040158;28;20238;-44
2021/12/26 05:06:11;;;;;;;104.53;57.95;;;-7.90;99.90;;;;;;5040685;28;20468;-44
2021/12/26 05:08:38;;;;;;;108.03;53.88;;;-7.90;99.90;;;;;;5042220;28;20278;-47
2021/12/26 05:11:06;;;;;;;101.53;57.72;;;-8.10;99.90;;;;;;5041949;28;20200;-47
2021/12/26 05:13:33;;;;;;;117.78;57.00;;;-8.00;99.90;;;;;;5041132;28;20541;-51
2021/12/26 05:16:00;;;;;;;123.68;59.63;;;-8.00;99.90;;;;;;5040602;28;20200;-46
2021/12/26 05:18:28;;;;;;;100.68;51.03;;;-8.10;99.90;;;;;;5040110;28;20258;-48
2021/12/26 05:20:56;;;;;;;101.25;56.63;;;-8.10;99.90;;;;;;5040463;28;20208;-44
2021/12/26 05:23:23;;;;;;;101.97;55.13;;;-8.10;99.90;;;;;;5040491;28;20197;-44
2021/12/26 05:25:51;;;;;;;111.18;54.10;;;-7.90;99.90;;;;;;5040212;28;20224;-45
2021/12/26 05:28:18;;;;;;;100.78;50.80;;;-7.80;99.90;;;;;;5040095;28;20220;-48
2021/12/26 05:30:45;;;;;;;108.25;52.05;;;-7.80;99.90;;;;;;5040523;28;20208;-46
2021/12/26 05:33:13;;;;;;;97.05;53.05;;;-7.60;99.90;;;;;;5040444;28;20430;-47
2021/12/26 05:35:40;;;;;;;101.20;50.83;;;-7.80;99.90;;;;;;5040730;28;20227;-47
2021/12/26 05:38:08;;;;;;;110.53;51.30;;;-7.80;99.90;;;;;;5040333;28;20232;-46
2021/12/26 05:40:35;;;;;;;103.18;54.35;;;-7.80;99.90;;;;;;5040284;28;20437;-50
2021/12/26 05:43:04;;;;;;;108.47;53.95;;;-7.80;99.90;;;;;;5040385;28;20534;-52
2021/12/26 05:45:31;;;;;;;109.07;56.90;;;-7.70;99.90;;;;;;5040534;28;20201;-44
2021/12/26 05:47:59;;;;;;;106.45;52.83;;;-8.00;99.90;;;;;;5044234;28;20289;-45
2021/12/26 05:50:26;;;;;;;97.10;50.67;;;-8.00;99.90;;;;;;5043947;28;20230;-48
2021/12/26 05:52:54;;;;;;;107.60;52.38;;;-8.10;99.90;;;;;;5044188;28;20207;-48
2021/12/26 05:55:21;;;;;;;96.13;53.40;;;-7.90;99.90;;;;;;5043824;28;20196;-46
2021/12/26 05:57:48;;;;;;;90.82;49.70;;;-7.90;99.90;;;;;;5043418;28;20266;-51
2021/12/26 06:00:18;;;;;;;94.53;49.58;;;-8.10;99.90;;;;;;5043404;28;20197;-45
2021/12/26 06:02:50;;;;;;;115.10;55.45;;;-8.10;99.90;;;;;;5044137;28;20235;-45
2021/12/26 06:05:19;;;;;;;104.70;52.58;;;-8.20;99.90;;;;;;5042358;28;20502;-44
2021/12/26 06:07:48;;;;;;;88.10;47.22;;;-8.10;99.90;;;;;;5043460;28;20224;-47
2021/12/26 06:10:16;;;;;;;106.72;51.50;;;-8.20;99.90;;;;;;5043156;28;20430;-47
2021/12/26 06:12:43;;;;;;;100.80;52.28;;;-8.10;99.90;;;;;;5043816;28;20196;-44
2021/12/26 06:15:13;;;;;;;106.53;51.80;;;-8.20;99.90;;;;;;5043386;28;20196;-48
2021/12/26 06:17:42;;;;;;;91.55;48.88;;;-8.30;99.90;;;;;;5043585;28;20228;-48
2021/12/26 06:20:14;;;;;;;101.07;53.00;;;-8.20;99.90;;;;;;5043612;28;20212;-49
2021/12/26 06:22:45;;;;;;;112.35;54.70;;;-8.00;99.90;;;;;;5043849;28;20403;-45
2021/12/26 06:25:14;;;;;;;102.03;49.78;;;-8.10;99.90;;;;;;5047951;28;20206;-46
2021/12/26 06:27:42;;;;;;;101.53;50.65;;;-8.10;99.90;;;;;;5047554;28;20238;-47
2021/12/26 06:30:11;;;;;;;124.82;56.78;;;-8.10;99.90;;;;;;5044882;28;20424;-47
2021/12/26 06:32:38;;;;;;;95.75;51.72;;;-8.10;99.90;;;;;;5042733;28;20242;-46
2021/12/26 06:35:08;;;;;;;109.25;49.20;;;-8.10;99.90;;;;;;5043392;28;20202;-48
2021/12/26 06:37:37;;;;;;;111.50;52.67;;;-8.00;99.90;;;;;;5042568;28;20604;-50
2021/12/26 06:40:07;;;;;;;98.13;49.70;;;-8.30;99.90;;;;;;5043191;28;20201;-51
2021/12/26 06:42:40;;;;;;;108.53;53.92;;;-8.30;99.90;;;;;;5042898;28;20201;-47
2021/12/26 06:45:14;;;;;;;92.95;47.20;;;-8.30;99.90;;;;;;5043219;28;20207;-48
2021/12/26 06:47:48;;;;;;;113.75;54.63;;;-8.20;99.90;;;;;;5043074;28;20231;-45
2021/12/26 06:50:17;;;;;;;99.20;51.50;;;-8.30;99.90;;;;;;5043669;28;20193;-51
2021/12/26 06:52:44;;;;;;;108.90;50.65;;;-8.20;99.90;;;;;;5043273;28;20234;-45
2021/12/26 06:55:12;;;;;;;98.72;47.60;;;-8.30;99.90;;;;;;5043654;28;20387;-45
2021/12/26 06:57:40;;;;;;;103.78;48.05;;;-8.40;99.90;;;;;;5041607;28;20247;-46
2021/12/26 07:00:10;;;;;;;93.40;50.75;;;-8.30;99.90;;;;;;5043301;28;20245;-49
2021/12/26 07:02:37;;;;;;;95.80;48.42;;;-8.30;99.90;;;;;;5042685;28;20246;-48
2021/12/26 07:05:05;;;;;;;89.78;46.28;;;-8.10;99.90;;;;;;5041479;28;20208;-47
2021/12/26 07:07:33;;;;;;;90.35;48.53;;;-8.20;99.90;;;;;;5043275;28;20580;-44
2021/12/26 07:10:00;;;;;;;91.18;47.20;;;-8.30;99.90;;;;;;5043924;28;20208;-46
2021/12/26 07:12:28;;;;;;;99.00;52.47;;;-8.20;99.90;;;;;;5043966;28;20243;-48
2021/12/26 07:14:55;;;;;;;85.72;46.47;;;-8.20;99.90;;;;;;5042991;28;20243;-45
2021/12/26 07:17:22;;;;;;;98.78;46.90;;;-8.20;99.90;;;;;;5042256;28;20278;-46
2021/12/26 07:19:50;;;;;;;104.70;50.17;;;-8.30;99.90;;;;;;5042286;28;20208;-48
2021/12/26 07:22:17;;;;;;;84.40;47.40;;;-8.20;99.90;;;;;;5042836;28;20207;-45
2021/12/26 07:24:46;;;;;;;84.40;46.10;;;-8.20;99.90;;;;;;5042754;28;20246;-50
2021/12/26 07:27:14;;;;;;;91.93;48.90;;;-8.30;99.90;;;;;;5044670;28;20302;-50
2021/12/26 07:29:42;;;;;;;97.43;50.95;;;-8.20;99.90;;;;;;5045053;28;20287;-46
2021/12/26 07:32:10;;;;;;;100.57;48.13;;;-8.10;99.90;;;;;;5042928;28;20239;-49
2021/12/26 07:34:40;;;;;;;95.35;51.08;;;-8.10;99.90;;;;;;5042566;28;20197;-44
2021/12/26 07:37:08;;;;;;;91.95;51.38;;;-8.20;99.90;;;;;;5043376;28;20228;-47
2021/12/26 07:39:36;;;;;;;102.70;52.05;;;-8.20;99.90;;;;;;5042821;28;20211;-44
2021/12/26 07:42:04;;;;;;;103.68;49.13;;;-8.10;99.90;;;;;;5042536;28;20299;-47
2021/12/26 07:44:32;;;;;;;112.50;53.47;;;-8.10;99.90;;;;;;5043233;28;20380;-47
2021/12/26 07:46:59;;;;;;;96.13;50.22;;;-8.00;99.90;;;;;;5043268;28;20450;-49
2021/12/26 07:49:27;;;;;;;103.50;49.60;;;-8.00;99.90;;;;;;5042152;28;20438;-45
2021/12/26 07:51:56;;;;;;;96.47;47.35;;;-7.90;99.90;;;;;;5042020;28;20197;-48
2021/12/26 07:54:24;;;;;;;94.50;47.95;;;-7.90;99.90;;;;;;5041954;28;20433;-45
2021/12/26 07:56:53;;;;;;;87.82;49.35;;;-8.00;99.90;;;;;;5041279;28;20230;-48
2021/12/26 07:59:21;;;;;;;91.38;49.08;;;-8.10;99.90;;;;;;5041568;28;20200;-50
2021/12/26 08:01:48;;;;;;;97.90;48.47;;;-7.80;99.90;;;;;;5041345;28;20334;-48
2021/12/26 08:04:16;;;;;;;90.50;49.58;;;-7.70;99.90;;;;;;5041932;28;20207;-46
2021/12/26 08:06:43;;;;;;;97.53;49.47;;;-7.50;99.90;;;;;;5040848;28;20262;-44
2021/12/26 08:09:11;;;;;;;97.13;48.22;;;-7.60;99.90;;;;;;5040715;28;20204;-48
2021/12/26 08:11:38;;;;;;;80.32;44.80;;;-7.60;99.90;;;;;;5041015;28;20258;-49
2021/12/26 08:14:06;;;;;;;98.90;51.47;;;-7.60;99.90;;;;;;5041508;28;20204;-44
2021/12/26 08:16:33;;;;;;;89.82;49.80;;;-7.60;99.90;;;;;;5041191;28;20212;-47
2021/12/26 08:19:01;;;;;;;95.75;50.47;;;-7.60;99.90;;;;;;5040410;28;20449;-45
2021/12/26 08:21:29;;;;;;;92.93;48.20;;;-7.60;99.90;;;;;;5041265;28;20208;-46
2021/12/26 08:23:56;;;;;;;92.65;48.65;;;-7.50;99.90;;;;;;5040356;28;20200;-44
2021/12/26 08:26:24;;;;;;;104.80;50.47;;;-7.40;99.90;;;;;;5041042;28;20226;-45
2021/12/26 08:28:51;;;;;;;84.68;52.05;;;-7.40;99.90;;;;;;5041488;28;20219;-45
2021/12/26 08:31:20;;;;;;;106.05;54.47;;;-7.40;99.90;;;;;;5041971;28;20196;-46
2021/12/26 08:33:48;;;;;;;92.35;51.70;;;-7.20;99.90;;;;;;5043774;28;20394;-50
2021/12/26 08:36:18;;;;;;;102.97;52.50;;;-7.30;99.90;;;;;;5051485;28;20205;-50
2021/12/26 08:38:46;;;;;;;256.85;122.40;;;-7.20;99.90;;;;;;5051580;28;20219;-53
2021/12/26 08:41:14;;;;;;;131.88;68.88;;;-7.30;99.90;;;;;;5047337;28;20223;-45
2021/12/26 08:43:43;;;;;;;91.18;52.15;;;-7.20;99.90;;;;;;5041100;28;20212;-48
2021/12/26 08:46:11;;;;;;;100.10;53.78;;;-7.00;99.90;;;;;;5041226;28;20238;-45
2021/12/26 08:48:40;;;;;;;81.47;47.28;;;-7.00;99.90;;;;;;5041081;28;20238;-48
2021/12/26 08:51:07;;;;;;;75.32;47.05;;;-6.90;99.90;;;;;;5040986;28;20196;-47
2021/12/26 08:53:34;;;;;;;84.43;48.47;;;-6.90;99.90;;;;;;5040721;28;20219;-49
2021/12/26 08:56:03;;;;;;;74.45;46.47;;;-6.80;99.90;;;;;;5040813;28;20198;-49
2021/12/26 08:58:31;;;;;;;90.25;46.88;;;-6.70;99.90;;;;;;5040545;28;20271;-46
2021/12/26 09:00:58;;;;;;;98.10;47.17;;;-6.80;99.90;;;;;;5039773;28;20200;-49
2021/12/26 09:03:26;;;;;;;92.35;51.85;;;-6.60;99.90;;;;;;5040838;28;20235;-52
2021/12/26 09:05:53;;;;;;;75.22;43.08;;;-6.60;99.90;;;;;;5040510;28;20574;-46
2021/12/26 09:08:21;;;;;;;73.45;43.65;;;-6.40;99.90;;;;;;5040833;28;20260;-50
2021/12/26 09:10:49;;;;;;;79.05;42.92;;;-6.40;99.90;;;;;;5040932;28;20250;-48
2021/12/26 09:13:16;;;;;;;96.30;48.50;;;-6.40;99.90;;;;;;5041222;28;20204;-44
2021/12/26 09:15:44;;;;;;;77.20;47.90;;;-6.30;99.90;;;;;;5040732;28;20258;-49
2021/12/26 09:18:11;;;;;;;95.80;54.63;;;-6.40;99.90;;;;;;5040782;28;20503;-51
2021/12/26 09:20:38;;;;;;;73.40;42.63;;;-6.40;99.90;;;;;;5041543;28;20270;-46
2021/12/26 09:23:05;;;;;;;66.90;40.20;;;-6.40;99.90;;;;;;5045238;28;20239;-50
2021/12/26 09:25:33;;;;;;;77.68;44.35;;;-6.30;99.90;;;;;;5045021;28;20208;-47
2021/12/26 09:28:00;;;;;;;77.32;42.95;;;-6.20;99.90;;;;;;5044851;28;20232;-46
2021/12/26 09:30:29;;;;;;;84.65;47.35;;;-6.10;99.90;;;;;;5047901;28;20509;-50
2021/12/26 09:32:56;;;;;;;85.05;47.03;;;-6.00;99.90;;;;;;5049872;28;20218;-49
2021/12/26 09:35:24;;;;;;;81.00;45.42;;;-6.00;99.90;;;;;;5046010;28;20196;-45
2021/12/26 09:37:51;;;;;;;69.22;42.38;;;-6.00;99.90;;;;;;5047015;28;20282;-48
2021/12/26 09:40:19;;;;;;;90.38;48.20;;;-6.10;99.90;;;;;;5047594;28;20279;-51
2021/12/26 09:42:46;;;;;;;82.47;45.28;;;-5.90;99.90;;;;;;5045658;28;20266;-46
2021/12/26 09:45:15;;;;;;;75.57;48.03;;;-5.90;99.90;;;;;;5044157;28;20251;-46
2021/12/26 09:47:43;;;;;;;81.38;45.17;;;-5.70;99.90;;;;;;5043744;28;20299;-46
2021/12/26 09:50:12;;;;;;;77.28;44.50;;;-5.80;99.90;;;;;;5044555;28;20216;-46
2021/12/26 09:52:44;;;;;;;86.47;48.10;;;-5.90;99.90;;;;;;5043696;28;20208;-45
2021/12/26 09:55:12;;;;;;;76.28;45.20;;;-5.80;99.90;;;;;;5043809;28;20204;-50
2021/12/26 09:57:40;;;;;;;87.18;49.20;;;-5.60;99.90;;;;;;5043279;28;20538;-46
2021/12/26 10:00:33;;;;;;;83.07;47.35;;;-5.60;99.90;;;;;;5043079;28;20219;-45
2021/12/26 10:03:22;;;;;;;71.15;43.53;;;-5.50;99.90;;;;;;5044041;28;20224;-47
2021/12/26 10:06:17;;;;;;;66.35;42.92;;;-5.50;99.90;;;;;;5045237;28;20196;-44
2021/12/26 10:09:04;;;;;;;116.43;42.58;;;-5.30;99.90;;;;;;5044391;28;20358;-45
2021/12/26 10:11:35;;;;;;;68.93;38.45;;;-5.30;99.90;;;;;;5045099;28;20255;-47
2021/12/26 10:14:08;;;;;;;68.53;39.88;;;-5.20;99.90;;;;;;5044784;28;20222;-47
2021/12/26 10:16:41;;;;;;;65.85;41.53;;;-5.30;99.90;;;;;;5044393;28;20242;-45
2021/12/26 10:19:10;;;;;;;65.32;41.65;;;-5.20;99.90;;;;;;5045386;28;20243;-44
2021/12/26 10:21:56;;;;;;;55.88;37.42;;;-5.20;99.90;;;;;;5044279;28;20459;-53
2021/12/26 10:24:50;;;;;;;52.97;33.30;;;-5.10;99.90;;;;;;5050508;28;20223;-53
2021/12/26 10:27:29;;;;;;;62.25;36.78;;;-5.10;99.90;;;;;;5043591;28;20224;-49
2021/12/26 10:30:04;;;;;;;56.85;33.53;;;-5.00;99.90;;;;;;5043328;28;20236;-50
2021/12/26 10:32:37;;;;;;;64.65;34.25;;;-4.80;99.90;;;;;;5041503;28;20457;-47
2021/12/26 10:35:11;;;;;;;52.85;31.50;;;-4.70;99.90;;;;;;5043193;28;20198;-46
2021/12/26 10:37:46;;;;;;;56.25;31.95;;;-4.80;99.90;;;;;;5043440;28;20298;-52
2021/12/26 10:40:18;;;;;;;57.05;34.05;;;-4.90;99.90;;;;;;5045729;28;20206;-46
2021/12/26 10:42:51;;;;;;;55.80;31.13;;;-4.90;99.90;;;;;;5046047;28;20204;-50
2021/12/26 10:45:28;;;;;;;58.75;31.50;;;-4.90;99.90;;;;;;5045699;28;20206;-51
2021/12/26 10:48:04;;;;;;;52.83;32.85;;;-4.80;99.90;;;;;;5044993;28;20261;-48
2021/12/26 10:50:35;;;;;;;53.58;33.30;;;-4.70;99.90;;;;;;5043310;28;20363;-47
2021/12/26 10:53:06;;;;;;;52.38;31.27;;;-4.70;99.90;;;;;;5043356;28;20422;-49
2021/12/26 10:55:41;;;;;;;51.88;31.67;;;-4.70;99.90;;;;;;5042763;28;20222;-46
2021/12/26 10:58:11;;;;;;;61.75;33.08;;;-4.60;99.90;;;;;;5042444;28;20224;-49
2021/12/26 11:00:41;;;;;;;69.45;32.50;;;-4.60;99.90;;;;;;5042656;28;20200;-48
2021/12/26 11:03:13;;;;;;;43.38;27.48;;;-4.40;99.90;;;;;;5042946;28;20200;-45
2021/12/26 11:05:47;;;;;;;51.38;31.63;;;-4.50;99.90;;;;;;5044856;28;20204;-46
2021/12/26 11:08:16;;;;;;;56.78;31.25;;;-4.50;99.90;;;;;;5045613;28;20267;-49
2021/12/26 11:10:52;;;;;;;52.15;33.47;;;-4.40;99.90;;;;;;5047277;28;20196;-44
2021/12/26 11:13:26;;;;;;;43.42;26.38;;;-4.30;99.90;;;;;;5045768;28;20200;-45
2021/12/26 11:15:56;;;;;;;51.40;29.75;;;-4.30;99.90;;;;;;5043984;28;20549;-47
2021/12/26 11:18:24;;;;;;;47.67;30.65;;;-4.40;99.90;;;;;;5048771;28;20295;-48
2021/12/26 11:20:59;;;;;;;59.72;32.75;;;-4.40;99.90;;;;;;5049643;28;20223;-49
2021/12/26 11:23:30;;;;;;;44.35;28.98;;;-4.30;99.90;;;;;;5045632;28;20207;-45
2021/12/26 11:25:58;;;;;;;48.17;26.73;;;-4.30;99.90;;;;;;5044448;28;20200;-46
2021/12/26 11:28:29;;;;;;;48.53;25.75;;;-4.30;99.90;;;;;;5046040;28;20290;-48
2021/12/26 11:31:01;;;;;;;44.83;27.20;;;-4.40;99.90;;;;;;5043937;28;20196;-45
2021/12/26 11:33:29;;;;;;;51.63;26.17;;;-4.20;99.90;;;;;;5042784;28;20274;-45
2021/12/26 11:35:58;;;;;;;44.72;27.55;;;-4.20;99.90;;;;;;5043069;28;20530;-44
2021/12/26 11:38:28;;;;;;;39.65;25.67;;;-4.20;99.90;;;;;;5042496;28;20546;-48
2021/12/26 11:40:59;;;;;;;39.90;23.92;;;-4.10;99.90;;;;;;5042890;28;20200;-52
2021/12/26 11:43:38;;;;;;;43.70;26.42;;;-4.10;99.90;;;;;;5042519;28;20200;-45
2021/12/26 11:46:34;;;;;;;41.28;25.10;;;-4.00;99.90;;;;;;5042392;28;20654;-49
2021/12/26 11:49:40;;;;;;;39.15;24.45;;;-4.10;99.90;;;;;;5041994;28;20230;-47
2021/12/26 11:52:22;;;;;;;36.85;23.33;;;-4.20;99.90;;;;;;5041721;28;20197;-50
2021/12/26 11:55:01;;;;;;;35.75;20.20;;;-4.00;99.90;;;;;;5042542;28;20250;-45
2021/12/26 11:57:51;;;;;;;31.83;20.40;;;-4.00;99.90;;;;;;5041662;28;20254;-50
2021/12/26 12:00:25;;;;;;;41.35;22.20;;;-4.00;99.90;;;;;;5040734;28;20403;-51
2021/12/26 12:02:58;;;;;;;37.90;23.55;;;-3.80;99.90;;;;;;5044994;28;20200;-44
2021/12/26 12:05:41;;;;;;;44.65;28.70;;;-3.80;99.90;;;;;;5045512;28;20247;-51
2021/12/26 12:08:12;;;;;;;48.45;29.67;;;-3.90;99.90;;;;;;5044082;28;20423;-49
2021/12/26 12:10:59;;;;;;;45.80;31.83;;;-3.90;99.90;;;;;;5043764;28;20196;-45
2021/12/26 12:13:27;;;;;;;51.97;29.58;;;-3.80;99.90;;;;;;5042588;28;20250;-45
2021/12/26 12:16:08;;;;;;;37.60;26.42;;;-3.80;99.90;;;;;;5041114;28;20243;-50
2021/12/26 12:18:38;;;;;;;47.40;29.77;;;-3.80;99.90;;;;;;5041040;28;20220;-47
2021/12/26 12:21:29;;;;;;;38.35;25.98;;;-3.70;99.90;;;;;;5041323;28;20207;-48
2021/12/26 12:24:03;;;;;;;39.97;26.83;;;-3.70;99.90;;;;;;5041156;28;20222;-48
2021/12/26 12:26:49;;;;;;;40.95;26.65;;;-3.70;99.90;;;;;;5041075;28;20208;-44
2021/12/26 12:29:29;;;;;;;47.80;26.73;;;-3.80;99.90;;;;;;5041093;28;20410;-47
2021/12/26 12:32:08;;;;;;;51.38;28.23;;;-3.90;99.90;;;;;;5041220;28;20200;-47
2021/12/26 12:35:05;;;;;;;39.83;25.83;;;-3.80;99.90;;;;;;5040712;28;20234;-50
2021/12/26 12:37:40;;;;;;;44.03;28.15;;;-3.90;99.90;;;;;;5040660;28;20378;-47
2021/12/26 12:40:32;;;;;;;45.92;27.95;;;-3.80;99.90;;;;;;5040718;28;20210;-47